sensor_id;sensor_type;location;lat;lon;timestamp;pressure;altitude;pressure_sealevel;temperature;humidity
44481;BME280;30184;42.018;23.670;2023-04-29T00:01:31;91377.81;;;1.34;75.28
44481;BME280;30184;42.018;23.670;2023-04-29T00:04:00;91635.25;;;2.90;75.48
44481;BME280;30184;42.018;23.670;2023-04-29T00:06:29;91605.00;;;2.89;75.79
44481;BME280;30184;42.018;23.670;2023-04-29T00:08:58;91509.19;;;2.26;75.53
44481;BME280;30184;42.018;23.670;2023-04-29T00:11:29;91631.78;;;2.86;74.94
44481;BME280;30184;42.018;23.670;2023-04-29T00:13:59;91599.63;;;2.86;75.18
44481;BME280;30184;42.018;23.670;2023-04-29T00:16:28;91391.06;;;0.44;75.34
44481;BME280;30184;42.018;23.670;2023-04-29T00:18:57;91353.13;;;0.75;75.74
44481;BME280;30184;42.018;23.670;2023-04-29T00:21:27;91604.97;;;2.75;75.94
44481;BME280;30184;42.018;23.670;2023-04-29T00:23:56;91474.69;;;1.93;76.09
44481;BME280;30184;42.018;23.670;2023-04-29T00:26:25;91610.22;;;2.36;76.39
44481;BME280;30184;42.018;23.670;2023-04-29T00:28:56;91592.63;;;2.39;76.84
44481;BME280;30184;42.018;23.670;2023-04-29T00:31:25;91591.53;;;2.61;77.04
44481;BME280;30184;42.018;23.670;2023-04-29T00:33:55;91499.94;;;1.99;76.89
44481;BME280;30184;42.018;23.670;2023-04-29T00:36:24;91592.66;;;2.60;76.96
44481;BME280;30184;42.018;23.670;2023-04-29T00:38:54;91390.00;;;1.24;77.00
44481;BME280;30184;42.018;23.670;2023-04-29T00:41:24;91610.59;;;2.38;77.21
44481;BME280;30184;42.018;23.670;2023-04-29T00:43:55;91558.19;;;2.37;77.11
44481;BME280;30184;42.018;23.670;2023-04-29T00:46:24;91617.91;;;2.52;77.22
44481;BME280;30184;42.018;23.670;2023-04-29T00:48:54;91564.97;;;2.13;77.21
44481;BME280;30184;42.018;23.670;2023-04-29T00:51:23;91549.31;;;2.12;77.49
44481;BME280;30184;42.018;23.670;2023-04-29T00:53:53;91575.03;;;2.38;77.89
44481;BME280;30184;42.018;23.670;2023-04-29T00:56:22;91519.53;;;1.41;77.56
44481;BME280;30184;42.018;23.670;2023-04-29T00:58:52;91583.03;;;2.31;77.91
44481;BME280;30184;42.018;23.670;2023-04-29T01:01:23;91611.69;;;2.27;77.98
44481;BME280;30184;42.018;23.670;2023-04-29T01:03:53;91530.88;;;1.93;77.64
44481;BME280;30184;42.018;23.670;2023-04-29T01:06:28;91581.09;;;2.20;78.36
44481;BME280;30184;42.018;23.670;2023-04-29T01:09:13;91584.88;;;2.16;78.46
44481;BME280;30184;42.018;23.670;2023-04-29T01:11:54;91507.31;;;1.36;78.30
44481;BME280;30184;42.018;23.670;2023-04-29T01:14:27;91628.84;;;2.11;78.64
44481;BME280;30184;42.018;23.670;2023-04-29T01:16:59;91561.03;;;1.86;78.85
44481;BME280;30184;42.018;23.670;2023-04-29T01:19:39;91645.25;;;2.06;78.78
44481;BME280;30184;42.018;23.670;2023-04-29T01:22:13;91562.16;;;1.74;79.14
44481;BME280;30184;42.018;23.670;2023-04-29T01:24:46;91525.25;;;1.36;79.12
44481;BME280;30184;42.018;23.670;2023-04-29T01:27:32;91595.09;;;1.96;78.71
44481;BME280;30184;42.018;23.670;2023-04-29T01:30:14;91391.84;;;0.44;78.54
44481;BME280;30184;42.018;23.670;2023-04-29T01:32:51;91631.03;;;1.95;79.06
44481;BME280;30184;42.018;23.670;2023-04-29T01:35:41;91584.69;;;1.73;79.28
44481;BME280;30184;42.018;23.670;2023-04-29T01:38:20;91599.28;;;1.90;79.09
44481;BME280;30184;42.018;23.670;2023-04-29T01:41:03;91596.84;;;1.64;79.23
44481;BME280;30184;42.018;23.670;2023-04-29T01:43:38;91606.88;;;1.81;79.27
44481;BME280;30184;42.018;23.670;2023-04-29T01:46:23;91593.47;;;1.77;79.70
44481;BME280;30184;42.018;23.670;2023-04-29T01:48:55;91600.34;;;1.71;79.84
44481;BME280;30184;42.018;23.670;2023-04-29T01:51:25;91507.88;;;1.05;79.84
44481;BME280;30184;42.018;23.670;2023-04-29T01:53:56;91505.94;;;1.02;79.95
44481;BME280;30184;42.018;23.670;2023-04-29T01:56:27;91598.78;;;1.67;80.21
44481;BME280;30184;42.018;23.670;2023-04-29T01:59:07;91612.09;;;1.56;80.23
44481;BME280;30184;42.018;23.670;2023-04-29T02:02:03;91609.09;;;1.65;80.33
44481;BME280;30184;42.018;23.670;2023-04-29T02:04:34;91505.53;;;1.00;80.28
44481;BME280;30184;42.018;23.670;2023-04-29T02:07:03;91511.66;;;1.00;80.23
44481;BME280;30184;42.018;23.670;2023-04-29T02:09:33;91511.25;;;0.98;79.87
44481;BME280;30184;42.018;23.670;2023-04-29T02:12:10;91544.72;;;0.85;79.59
44481;BME280;30184;42.018;23.670;2023-04-29T02:14:41;91507.00;;;0.94;79.56
44481;BME280;30184;42.018;23.670;2023-04-29T02:17:10;91635.03;;;1.57;79.35
44481;BME280;30184;42.018;23.670;2023-04-29T02:19:41;91597.59;;;1.57;79.73
44481;BME280;30184;42.018;23.670;2023-04-29T02:22:11;91549.50;;;1.09;79.48
44481;BME280;30184;42.018;23.670;2023-04-29T02:24:41;91599.06;;;1.51;79.64
44481;BME280;30184;42.018;23.670;2023-04-29T02:27:12;91537.97;;;0.98;79.61
44481;BME280;30184;42.018;23.670;2023-04-29T02:29:42;91604.06;;;1.60;80.10
44481;BME280;30184;42.018;23.670;2023-04-29T02:32:11;91408.94;;;0.36;80.00
44481;BME280;30184;42.018;23.670;2023-04-29T02:34:42;91684.47;;;1.33;80.20
44481;BME280;30184;42.018;23.670;2023-04-29T02:37:11;91592.28;;;1.64;80.55
44481;BME280;30184;42.018;23.670;2023-04-29T02:39:40;91593.03;;;1.65;80.81
44481;BME280;30184;42.018;23.670;2023-04-29T02:42:13;91586.16;;;1.67;80.81
44481;BME280;30184;42.018;23.670;2023-04-29T02:44:42;91571.56;;;1.54;80.76
44481;BME280;30184;42.018;23.670;2023-04-29T02:47:12;91594.19;;;1.67;80.76
44481;BME280;30184;42.018;23.670;2023-04-29T02:49:41;91594.09;;;1.53;80.85
44481;BME280;30184;42.018;23.670;2023-04-29T02:52:11;91416.00;;;0.62;80.63
44481;BME280;30184;42.018;23.670;2023-04-29T02:54:41;91605.31;;;1.73;80.94
44481;BME280;30184;42.018;23.670;2023-04-29T02:57:10;91598.47;;;1.75;80.85
44481;BME280;30184;42.018;23.670;2023-04-29T02:59:41;91585.44;;;1.74;80.13
44481;BME280;30184;42.018;23.670;2023-04-29T03:02:10;91607.56;;;1.64;80.14
44481;BME280;30184;42.018;23.670;2023-04-29T03:04:41;91524.81;;;1.27;79.90
44481;BME280;30184;42.018;23.670;2023-04-29T03:07:11;91579.34;;;1.73;80.13
44481;BME280;30184;42.018;23.670;2023-04-29T03:09:40;91567.41;;;1.57;80.46
44481;BME280;30184;42.018;23.670;2023-04-29T03:12:10;91631.69;;;1.74;80.53
44481;BME280;30184;42.018;23.670;2023-04-29T03:14:41;91496.84;;;1.13;80.90
44481;BME280;30184;42.018;23.670;2023-04-29T03:17:10;91606.09;;;1.77;80.48
44481;BME280;30184;42.018;23.670;2023-04-29T03:19:40;91593.09;;;1.75;79.99
44481;BME280;30184;42.018;23.670;2023-04-29T03:22:10;91563.97;;;1.60;79.73
44481;BME280;30184;42.018;23.670;2023-04-29T03:24:42;91551.25;;;1.42;79.83
44481;BME280;30184;42.018;23.670;2023-04-29T03:27:11;91598.84;;;1.77;79.80
44481;BME280;30184;42.018;23.670;2023-04-29T03:29:42;91603.41;;;1.77;79.63
44481;BME280;30184;42.018;23.670;2023-04-29T03:32:11;91504.09;;;1.13;79.45
44481;BME280;30184;42.018;23.670;2023-04-29T03:34:41;91583.13;;;1.65;79.49
44481;BME280;30184;42.018;23.670;2023-04-29T03:37:25;91607.06;;;1.51;79.82
44481;BME280;30184;42.018;23.670;2023-04-29T03:40:05;91648.28;;;0.99;79.90
44481;BME280;30184;42.018;23.670;2023-04-29T03:42:36;91612.22;;;1.77;80.33
44481;BME280;30184;42.018;23.670;2023-04-29T03:45:09;91663.44;;;1.76;80.42
44481;BME280;30184;42.018;23.670;2023-04-29T03:47:39;91636.28;;;1.77;80.62
44481;BME280;30184;42.018;23.670;2023-04-29T03:50:10;91510.78;;;0.86;80.59
44481;BME280;30184;42.018;23.670;2023-04-29T03:52:40;91688.66;;;0.90;80.52
44481;BME280;30184;42.018;23.670;2023-04-29T03:55:13;91533.94;;;1.19;80.57
44481;BME280;30184;42.018;23.670;2023-04-29T03:57:44;91584.94;;;1.54;80.76
44481;BME280;30184;42.018;23.670;2023-04-29T04:00:17;91381.84;;;0.34;80.55
44481;BME280;30184;42.018;23.670;2023-04-29T04:02:52;91657.38;;;1.35;80.66
44481;BME280;30184;42.018;23.670;2023-04-29T04:05:22;91619.22;;;2.00;80.27
44481;BME280;30184;42.018;23.670;2023-04-29T04:08:01;91623.09;;;2.09;79.98
44481;BME280;30184;42.018;23.670;2023-04-29T04:10:32;91622.38;;;2.19;79.36
44481;BME280;30184;42.018;23.670;2023-04-29T04:13:06;91498.50;;;1.36;78.92
44481;BME280;30184;42.018;23.670;2023-04-29T04:15:37;91537.31;;;1.81;78.46
44481;BME280;30184;42.018;23.670;2023-04-29T04:18:07;91546.19;;;1.92;78.09
44481;BME280;30184;42.018;23.670;2023-04-29T04:20:36;91555.09;;;2.21;77.88
44481;BME280;30184;42.018;23.670;2023-04-29T04:23:06;91613.00;;;2.79;77.15
44481;BME280;30184;42.018;23.670;2023-04-29T04:25:35;91526.03;;;2.30;77.14
44481;BME280;30184;42.018;23.670;2023-04-29T04:28:26;91589.69;;;2.86;76.49
44481;BME280;30184;42.018;23.670;2023-04-29T04:31:04;91531.03;;;2.42;76.21
44481;BME280;30184;42.018;23.670;2023-04-29T04:33:35;91479.03;;;2.57;75.89
44481;BME280;30184;42.018;23.670;2023-04-29T04:36:05;91502.41;;;2.85;75.15
44481;BME280;30184;42.018;23.670;2023-04-29T04:38:35;91485.16;;;2.90;74.89
44481;BME280;30184;42.018;23.670;2023-04-29T04:41:08;91423.88;;;2.00;73.08
44481;BME280;30184;42.018;23.670;2023-04-29T04:43:38;91559.00;;;3.62;72.87
44481;BME280;30184;42.018;23.670;2023-04-29T04:46:16;91500.47;;;3.21;72.61
44481;BME280;30184;42.018;23.670;2023-04-29T04:49:00;91632.13;;;4.33;72.26
44481;BME280;30184;42.018;23.670;2023-04-29T04:51:32;91585.63;;;4.47;72.86
44481;BME280;30184;42.018;23.670;2023-04-29T04:54:01;91595.41;;;4.85;73.00
44481;BME280;30184;42.018;23.670;2023-04-29T04:56:32;91588.38;;;5.09;71.25
44481;BME280;30184;42.018;23.670;2023-04-29T04:59:05;91383.31;;;3.91;69.12
44481;BME280;30184;42.018;23.670;2023-04-29T05:01:38;91512.59;;;4.66;68.16
44481;BME280;30184;42.018;23.670;2023-04-29T05:04:07;91589.53;;;5.56;67.83
44481;BME280;30184;42.018;23.670;2023-04-29T05:06:37;91370.03;;;4.32;66.84
44481;BME280;30184;42.018;23.670;2023-04-29T05:09:06;91581.53;;;5.94;66.39
44481;BME280;30184;42.018;23.670;2023-04-29T05:11:36;91561.97;;;5.86;65.73
44481;BME280;30184;42.018;23.670;2023-04-29T05:14:10;91637.66;;;6.40;65.91
44481;BME280;30184;42.018;23.670;2023-04-29T05:16:40;91568.09;;;6.62;64.20
44481;BME280;30184;42.018;23.670;2023-04-29T05:19:10;91533.47;;;6.30;63.68
44481;BME280;30184;42.018;23.670;2023-04-29T05:21:40;91321.38;;;5.39;62.86
44481;BME280;30184;42.018;23.670;2023-04-29T05:24:11;91550.75;;;7.20;61.88
44481;BME280;30184;42.018;23.670;2023-04-29T05:26:41;91464.25;;;6.77;60.87
44481;BME280;30184;42.018;23.670;2023-04-29T05:29:11;91467.88;;;6.94;60.33
44481;BME280;30184;42.018;23.670;2023-04-29T05:31:49;91554.31;;;7.64;59.51
44481;BME280;30184;42.018;23.670;2023-04-29T05:34:19;91560.28;;;7.75;58.79
44481;BME280;30184;42.018;23.670;2023-04-29T05:36:49;91517.63;;;7.16;57.93
44481;BME280;30184;42.018;23.670;2023-04-29T05:39:18;91560.34;;;7.71;57.55
44481;BME280;30184;42.018;23.670;2023-04-29T05:41:56;91528.06;;;7.64;57.64
44481;BME280;30184;42.018;23.670;2023-04-29T05:44:37;91469.38;;;7.45;57.39
44481;BME280;30184;42.018;23.670;2023-04-29T05:47:09;91550.75;;;8.13;57.31
44481;BME280;30184;42.018;23.670;2023-04-29T05:49:39;91553.66;;;8.22;57.23
44481;BME280;30184;42.018;23.670;2023-04-29T05:52:08;91552.66;;;8.36;55.37
44481;BME280;30184;42.018;23.670;2023-04-29T05:54:44;91568.00;;;7.76;53.89
44481;BME280;30184;42.018;23.670;2023-04-29T05:57:13;91464.81;;;8.05;54.19
44481;BME280;30184;42.018;23.670;2023-04-29T05:59:42;91579.09;;;8.68;53.58
44481;BME280;30184;42.018;23.670;2023-04-29T06:02:13;91341.84;;;7.18;53.57
44481;BME280;30184;42.018;23.670;2023-04-29T06:04:43;91530.81;;;9.03;53.18
44481;BME280;30184;42.018;23.670;2023-04-29T06:07:40;91528.56;;;9.17;53.21
44481;BME280;30184;42.018;23.670;2023-04-29T06:10:30;91577.16;;;8.69;52.11
44481;BME280;30184;42.018;23.670;2023-04-29T06:13:00;91516.22;;;9.49;51.74
44481;BME280;30184;42.018;23.670;2023-04-29T06:15:29;91532.47;;;9.65;51.95
44481;BME280;30184;42.018;23.670;2023-04-29T06:18:00;91530.44;;;9.85;51.41
44481;BME280;30184;42.018;23.670;2023-04-29T06:20:29;91421.09;;;9.47;51.45
44481;BME280;30184;42.018;23.670;2023-04-29T06:22:59;91498.34;;;10.13;51.30
44481;BME280;30184;42.018;23.670;2023-04-29T06:25:29;91490.00;;;10.07;52.00
44481;BME280;30184;42.018;23.670;2023-04-29T06:28:02;91539.13;;;10.25;52.35
44481;BME280;30184;42.018;23.670;2023-04-29T06:30:32;91516.31;;;9.45;52.89
44481;BME280;30184;42.018;23.670;2023-04-29T06:33:04;91511.81;;;9.87;52.13
44481;BME280;30184;42.018;23.670;2023-04-29T06:35:38;91479.72;;;10.15;52.08
44481;BME280;30184;42.018;23.670;2023-04-29T06:38:23;91498.25;;;10.32;53.12
44481;BME280;30184;42.018;23.670;2023-04-29T06:40:53;91437.78;;;9.90;52.87
44481;BME280;30184;42.018;23.670;2023-04-29T06:43:41;91524.69;;;10.57;52.64
44481;BME280;30184;42.018;23.670;2023-04-29T06:46:29;91533.38;;;10.52;53.34
44481;BME280;30184;42.018;23.670;2023-04-29T06:49:08;91429.59;;;10.06;54.00
44481;BME280;30184;42.018;23.670;2023-04-29T06:51:37;91515.69;;;10.60;54.07
44481;BME280;30184;42.018;23.670;2023-04-29T06:54:06;91540.59;;;10.71;54.26
44481;BME280;30184;42.018;23.670;2023-04-29T06:56:36;91491.84;;;10.68;55.94
44481;BME280;30184;42.018;23.670;2023-04-29T06:59:09;91365.91;;;9.98;55.84
44481;BME280;30184;42.018;23.670;2023-04-29T07:01:39;91399.00;;;10.35;55.13
44481;BME280;30184;42.018;23.670;2023-04-29T07:04:12;91239.63;;;9.34;54.99
44481;BME280;30184;42.018;23.670;2023-04-29T07:06:41;91510.81;;;10.68;55.21
44481;BME280;30184;42.018;23.670;2023-04-29T07:09:14;91361.56;;;9.59;56.18
44481;BME280;30184;42.018;23.670;2023-04-29T07:11:43;91471.63;;;10.56;56.14
44481;BME280;30184;42.018;23.670;2023-04-29T07:14:13;91484.72;;;10.45;55.49
44481;BME280;30184;42.018;23.670;2023-04-29T07:16:42;91380.50;;;10.17;56.51
44481;BME280;30184;42.018;23.670;2023-04-29T07:19:15;91452.44;;;10.63;55.38
44481;BME280;30184;42.018;23.670;2023-04-29T07:21:44;91236.28;;;9.55;54.83
44481;BME280;30184;42.018;23.670;2023-04-29T07:24:14;91484.84;;;11.08;53.61
44481;BME280;30184;42.018;23.670;2023-04-29T07:26:46;91396.94;;;10.52;52.83
44481;BME280;30184;42.018;23.670;2023-04-29T07:29:16;91438.00;;;11.30;52.92
44481;BME280;30184;42.018;23.670;2023-04-29T07:31:46;91467.44;;;11.44;51.67
44481;BME280;30184;42.018;23.670;2023-04-29T07:34:17;91357.84;;;11.12;49.92
44481;BME280;30184;42.018;23.670;2023-04-29T07:36:47;91186.47;;;10.03;48.87
44481;BME280;30184;42.018;23.670;2023-04-29T07:39:18;91416.56;;;11.44;49.16
44481;BME280;30184;42.018;23.670;2023-04-29T07:41:52;91399.75;;;11.24;49.37
44481;BME280;30184;42.018;23.670;2023-04-29T07:44:22;91446.72;;;11.12;49.45
44481;BME280;30184;42.018;23.670;2023-04-29T07:46:51;91475.44;;;11.60;50.42
44481;BME280;30184;42.018;23.670;2023-04-29T07:49:22;91421.81;;;11.73;46.23
44481;BME280;30184;42.018;23.670;2023-04-29T07:51:52;91418.44;;;11.82;47.06
44481;BME280;30184;42.018;23.670;2023-04-29T07:54:22;91413.41;;;11.93;46.04
44481;BME280;30184;42.018;23.670;2023-04-29T07:56:52;91419.88;;;12.30;44.64
44481;BME280;30184;42.018;23.670;2023-04-29T07:59:21;91347.38;;;11.36;44.74
44481;BME280;30184;42.018;23.670;2023-04-29T08:01:51;91413.97;;;12.53;44.24
44481;BME280;30184;42.018;23.670;2023-04-29T08:04:22;91469.50;;;12.78;44.04
44481;BME280;30184;42.018;23.670;2023-04-29T08:07:08;91288.28;;;12.15;41.95
44481;BME280;30184;42.018;23.670;2023-04-29T08:09:37;91299.28;;;12.02;41.71
44481;BME280;30184;42.018;23.670;2023-04-29T08:12:09;91396.97;;;13.33;42.12
44481;BME280;30184;42.018;23.670;2023-04-29T08:14:40;91407.28;;;13.47;42.49
44481;BME280;30184;42.018;23.670;2023-04-29T08:17:09;91427.47;;;13.59;43.04
44481;BME280;30184;42.018;23.670;2023-04-29T08:19:40;91406.41;;;13.59;43.45
44481;BME280;30184;42.018;23.670;2023-04-29T08:22:09;91390.06;;;13.68;43.30
44481;BME280;30184;42.018;23.670;2023-04-29T08:24:40;91289.25;;;13.10;43.30
44481;BME280;30184;42.018;23.670;2023-04-29T08:27:12;91197.19;;;12.68;44.01
44481;BME280;30184;42.018;23.670;2023-04-29T08:29:42;91302.03;;;13.50;43.88
44481;BME280;30184;42.018;23.670;2023-04-29T08:32:11;91367.94;;;13.75;44.16
44481;BME280;30184;42.018;23.670;2023-04-29T08:34:42;91380.97;;;13.62;43.46
44481;BME280;30184;42.018;23.670;2023-04-29T08:37:11;91377.31;;;14.29;43.40
44481;BME280;30184;42.018;23.670;2023-04-29T08:39:43;91270.09;;;13.68;41.89
44481;BME280;30184;42.018;23.670;2023-04-29T08:42:13;91259.94;;;13.78;42.74
44481;BME280;30184;42.018;23.670;2023-04-29T08:44:44;91348.41;;;13.77;43.53
44481;BME280;30184;42.018;23.670;2023-04-29T08:47:14;91370.03;;;14.63;41.86
44481;BME280;30184;42.018;23.670;2023-04-29T08:49:45;91307.47;;;14.04;42.08
44481;BME280;30184;42.018;23.670;2023-04-29T08:52:14;91403.97;;;15.22;41.54
44481;BME280;30184;42.018;23.670;2023-04-29T08:54:43;91343.91;;;15.37;40.62
44481;BME280;30184;42.018;23.670;2023-04-29T08:57:13;91376.66;;;15.46;39.88
44481;BME280;30184;42.018;23.670;2023-04-29T08:59:43;91326.41;;;15.43;39.85
44481;BME280;30184;42.018;23.670;2023-04-29T09:02:15;91332.91;;;15.46;40.55
44481;BME280;30184;42.018;23.670;2023-04-29T09:04:52;91340.44;;;15.60;40.52
44481;BME280;30184;42.018;23.670;2023-04-29T09:07:24;91241.53;;;15.14;39.85
44481;BME280;30184;42.018;23.670;2023-04-29T09:09:54;91270.22;;;15.18;40.50
44481;BME280;30184;42.018;23.670;2023-04-29T09:12:24;91302.53;;;15.67;40.73
44481;BME280;30184;42.018;23.670;2023-04-29T09:14:53;91321.69;;;15.91;40.42
44481;BME280;30184;42.018;23.670;2023-04-29T09:17:40;91247.66;;;15.71;40.08
44481;BME280;30184;42.018;23.670;2023-04-29T09:20:28;91190.72;;;15.46;39.71
44481;BME280;30184;42.018;23.670;2023-04-29T09:22:59;91294.78;;;16.04;38.96
44481;BME280;30184;42.018;23.670;2023-04-29T09:25:30;91277.00;;;16.38;37.69
44481;BME280;30184;42.018;23.670;2023-04-29T09:28:14;91094.16;;;15.25;32.58
44481;BME280;30184;42.018;23.670;2023-04-29T09:30:46;91111.69;;;15.48;30.92
44481;BME280;30184;42.018;23.670;2023-04-29T09:33:17;91195.50;;;16.33;28.82
44481;BME280;30184;42.018;23.670;2023-04-29T09:35:48;91237.03;;;16.96;29.52
44481;BME280;30184;42.018;23.670;2023-04-29T09:38:19;91230.97;;;17.07;28.22
44481;BME280;30184;42.018;23.670;2023-04-29T09:40:49;91254.41;;;17.08;29.68
44481;BME280;30184;42.018;23.670;2023-04-29T09:43:25;91261.25;;;17.73;29.28
44481;BME280;30184;42.018;23.670;2023-04-29T09:45:54;91255.84;;;17.79;28.55
44481;BME280;30184;42.018;23.670;2023-04-29T09:48:30;91252.81;;;18.23;30.57
44481;BME280;30184;42.018;23.670;2023-04-29T09:51:01;91274.41;;;18.61;28.91
44481;BME280;30184;42.018;23.670;2023-04-29T09:53:31;91164.94;;;18.23;28.94
44481;BME280;30184;42.018;23.670;2023-04-29T09:56:05;91197.56;;;18.47;29.10
44481;BME280;30184;42.018;23.670;2023-04-29T09:58:35;91152.56;;;18.39;29.04
44481;BME280;30184;42.018;23.670;2023-04-29T10:01:06;91126.38;;;18.43;28.48
44481;BME280;30184;42.018;23.670;2023-04-29T10:03:36;91044.84;;;17.92;28.08
44481;BME280;30184;42.018;23.670;2023-04-29T10:06:07;91207.22;;;18.99;28.28
44481;BME280;30184;42.018;23.670;2023-04-29T10:08:37;91205.66;;;18.87;28.56
44481;BME280;30184;42.018;23.670;2023-04-29T10:11:09;91127.03;;;18.33;28.24
44481;BME280;30184;42.018;23.670;2023-04-29T10:13:41;91201.19;;;18.95;28.68
44481;BME280;30184;42.018;23.670;2023-04-29T10:16:18;91203.47;;;18.97;28.36
44481;BME280;30184;42.018;23.670;2023-04-29T10:18:53;91193.13;;;18.86;29.25
44481;BME280;30184;42.018;23.670;2023-04-29T10:21:27;91191.59;;;18.80;29.08
44481;BME280;30184;42.018;23.670;2023-04-29T10:23:58;91174.88;;;18.83;28.32
44481;BME280;30184;42.018;23.670;2023-04-29T10:26:29;91188.59;;;18.83;28.35
44481;BME280;30184;42.018;23.670;2023-04-29T10:29:00;91218.91;;;18.89;27.94
44481;BME280;30184;42.018;23.670;2023-04-29T10:31:30;91184.03;;;19.12;28.78
44481;BME280;30184;42.018;23.670;2023-04-29T10:34:01;91009.81;;;18.13;26.89
44481;BME280;30184;42.018;23.670;2023-04-29T10:36:32;91082.06;;;18.67;27.15
44481;BME280;30184;42.018;23.670;2023-04-29T10:39:04;91087.84;;;18.69;27.77
44481;BME280;30184;42.018;23.670;2023-04-29T10:41:42;91169.38;;;19.37;26.71
44481;BME280;30184;42.018;23.670;2023-04-29T10:44:13;91102.22;;;19.01;26.64
44481;BME280;30184;42.018;23.670;2023-04-29T10:46:42;91192.00;;;19.58;27.21
44481;BME280;30184;42.018;23.670;2023-04-29T10:49:12;91160.53;;;19.64;26.50
44481;BME280;30184;42.018;23.670;2023-04-29T10:51:44;91069.66;;;18.83;26.49
44481;BME280;30184;42.018;23.670;2023-04-29T10:54:14;91186.25;;;19.50;26.45
44481;BME280;30184;42.018;23.670;2023-04-29T10:56:47;91180.47;;;19.48;26.68
44481;BME280;30184;42.018;23.670;2023-04-29T10:59:20;91097.53;;;19.13;26.97
44481;BME280;30184;42.018;23.670;2023-04-29T11:01:50;91189.03;;;19.61;26.86
44481;BME280;30184;42.018;23.670;2023-04-29T11:04:21;91165.25;;;19.58;26.78
44481;BME280;30184;42.018;23.670;2023-04-29T11:06:55;90955.66;;;18.19;26.99
44481;BME280;30184;42.018;23.670;2023-04-29T11:09:26;91163.75;;;19.57;27.49
44481;BME280;30184;42.018;23.670;2023-04-29T11:11:58;91162.28;;;19.67;27.33
44481;BME280;30184;42.018;23.670;2023-04-29T11:14:32;91160.53;;;19.75;27.75
44481;BME280;30184;42.018;23.670;2023-04-29T11:17:06;91146.88;;;19.33;27.80
44481;BME280;30184;42.018;23.670;2023-04-29T11:19:40;91174.28;;;19.64;28.80
44481;BME280;30184;42.018;23.670;2023-04-29T11:22:23;91143.22;;;19.58;29.71
44481;BME280;30184;42.018;23.670;2023-04-29T11:24:54;91152.28;;;19.70;29.44
44481;BME280;30184;42.018;23.670;2023-04-29T11:27:29;91079.50;;;19.06;29.68
44481;BME280;30184;42.018;23.670;2023-04-29T11:30:02;91162.69;;;19.44;29.33
44481;BME280;30184;42.018;23.670;2023-04-29T11:32:36;91127.03;;;19.12;30.47
44481;BME280;30184;42.018;23.670;2023-04-29T11:35:09;91180.38;;;18.52;30.32
44481;BME280;30184;42.018;23.670;2023-04-29T11:37:43;90997.69;;;17.88;31.01
44481;BME280;30184;42.018;23.670;2023-04-29T11:40:14;91072.00;;;18.16;30.74
44481;BME280;30184;42.018;23.670;2023-04-29T11:42:48;91155.63;;;18.83;30.95
44481;BME280;30184;42.018;23.670;2023-04-29T11:45:26;91184.13;;;18.80;30.70
44481;BME280;30184;42.018;23.670;2023-04-29T11:47:58;91131.91;;;18.49;30.77
44481;BME280;30184;42.018;23.670;2023-04-29T11:50:29;91156.72;;;18.97;31.02
44481;BME280;30184;42.018;23.670;2023-04-29T11:53:01;90861.78;;;16.93;31.39
44481;BME280;30184;42.018;23.670;2023-04-29T11:55:33;91099.88;;;18.77;31.79
44481;BME280;30184;42.018;23.670;2023-04-29T11:58:03;91155.84;;;19.28;30.34
44481;BME280;30184;42.018;23.670;2023-04-29T12:00:33;91160.91;;;19.35;30.81
44481;BME280;30184;42.018;23.670;2023-04-29T12:03:07;91150.38;;;19.33;29.81
44481;BME280;30184;42.018;23.670;2023-04-29T12:05:45;91152.84;;;19.26;29.99
44481;BME280;30184;42.018;23.670;2023-04-29T12:08:20;91002.09;;;18.17;30.48
44481;BME280;30184;42.018;23.670;2023-04-29T12:10:50;91153.13;;;18.85;30.80
44481;BME280;30184;42.018;23.670;2023-04-29T12:13:22;91107.19;;;18.17;31.49
44481;BME280;30184;42.018;23.670;2023-04-29T12:15:56;91182.97;;;18.35;31.56
44481;BME280;30184;42.018;23.670;2023-04-29T12:18:30;91155.94;;;18.22;31.53
44481;BME280;30184;42.018;23.670;2023-04-29T12:21:04;91158.56;;;18.11;31.95
44481;BME280;30184;42.018;23.670;2023-04-29T12:23:37;91153.25;;;18.02;31.35
44481;BME280;30184;42.018;23.670;2023-04-29T12:26:15;91177.00;;;18.05;31.31
44481;BME280;30184;42.018;23.670;2023-04-29T12:28:52;91157.50;;;18.03;31.47
44481;BME280;30184;42.018;23.670;2023-04-29T12:31:22;91153.53;;;18.04;31.40
44481;BME280;30184;42.018;23.670;2023-04-29T12:33:53;91183.28;;;18.11;31.11
44481;BME280;30184;42.018;23.670;2023-04-29T12:36:24;91082.28;;;17.64;30.09
44481;BME280;30184;42.018;23.670;2023-04-29T12:38:57;91089.78;;;17.63;30.76
44481;BME280;30184;42.018;23.670;2023-04-29T12:41:39;91134.41;;;18.15;31.03
44481;BME280;30184;42.018;23.670;2023-04-29T12:44:11;91152.28;;;18.37;30.86
44481;BME280;30184;42.018;23.670;2023-04-29T12:46:42;91138.06;;;18.38;30.67
44481;BME280;30184;42.018;23.670;2023-04-29T12:49:12;91068.19;;;18.08;30.46
44481;BME280;30184;42.018;23.670;2023-04-29T12:51:42;91042.13;;;17.92;30.97
44481;BME280;30184;42.018;23.670;2023-04-29T12:54:14;91143.88;;;18.83;30.20
44481;BME280;30184;42.018;23.670;2023-04-29T12:56:44;91068.91;;;18.40;29.68
44481;BME280;30184;42.018;23.670;2023-04-29T12:59:14;91078.47;;;18.50;29.77
44481;BME280;30184;42.018;23.670;2023-04-29T13:01:45;91139.72;;;18.98;29.77
44481;BME280;30184;42.018;23.670;2023-04-29T13:04:15;91159.97;;;19.01;30.33
44481;BME280;30184;42.018;23.670;2023-04-29T13:06:48;91010.09;;;18.20;29.65
44481;BME280;30184;42.018;23.670;2023-04-29T13:09:23;91134.72;;;18.97;29.57
44481;BME280;30184;42.018;23.670;2023-04-29T13:11:53;91100.41;;;18.87;29.26
44481;BME280;30184;42.018;23.670;2023-04-29T13:14:22;90950.16;;;18.13;29.40
44481;BME280;30184;42.018;23.670;2023-04-29T13:16:52;91094.72;;;19.01;29.29
44481;BME280;30184;42.018;23.670;2023-04-29T13:19:22;91142.59;;;19.26;29.15
44481;BME280;30184;42.018;23.670;2023-04-29T13:22:01;90883.13;;;17.46;29.86